createdAt,value
2022-10-19T00:01:08.441Z,101814.09
2022-10-19T00:03:36.516Z,101814.09
2022-10-19T00:06:34.362Z,101806.84
2022-10-19T00:09:08.281Z,101814.09
2022-10-19T00:11:39.138Z,101814.09
2022-10-19T00:14:07.418Z,101809.66
2022-10-19T00:16:37.716Z,101819.47
2022-10-19T00:19:09.263Z,101815.94
2022-10-19T00:21:36.658Z,101819.47
2022-10-19T00:24:04.255Z,101815.94
2022-10-19T00:26:31.917Z,101816.88
2022-10-19T00:29:00.261Z,101817.75
2022-10-19T00:31:27.852Z,101821.44
2022-10-19T00:33:56.739Z,101817.75
2022-10-19T00:36:27.047Z,101816.03
2022-10-19T00:38:55.639Z,101812.34
2022-10-19T00:41:26.084Z,101808.94
2022-10-19T00:44:02.978Z,101806.09
2022-10-19T00:46:33.835Z,101794.47
2022-10-19T00:49:07.108Z,101786.50
2022-10-19T00:51:41.111Z,101790.06
2022-10-19T00:54:09.597Z,101790.06
2022-10-19T00:56:40.775Z,101792.75
2022-10-19T00:59:09.328Z,101803.53
2022-10-19T01:01:37.214Z,101799.13
2022-10-19T01:04:05.378Z,101792.75
2022-10-19T01:06:33.176Z,101787.34
2022-10-19T01:09:00.353Z,101778.53
2022-10-19T01:11:45.915Z,101783.81
2022-10-19T01:14:50.722Z,101776.81
2022-10-19T01:17:30.213Z,101773.88
2022-10-19T01:20:03.440Z,101774.00
2022-10-19T01:23:10.214Z,101767.72
2022-10-19T01:25:52.496Z,101762.34
2022-10-19T01:28:31.696Z,101765.03
2022-10-19T01:31:01.946Z,101761.47
2022-10-19T01:34:28.325Z,101756.09
2022-10-19T01:37:07.091Z,101757.94
2022-10-19T01:39:59.792Z,101770.41
2022-10-19T01:42:44.660Z,101758.78
2022-10-19T01:45:25.174Z,101762.34
2022-10-19T01:47:59.642Z,101756.09
2022-10-19T01:50:41.073Z,101754.38
2022-10-19T01:53:10.907Z,101755.38
2022-10-19T01:55:43.179Z,101750.84
2022-10-19T01:58:16.540Z,101750.84
2022-10-19T02:00:46.393Z,101751.81
2022-10-19T02:03:15.237Z,101751.69
2022-10-19T02:05:44.718Z,101750.84
2022-10-19T02:08:22.804Z,101744.59
2022-10-19T02:10:50.627Z,101749.13
2022-10-19T02:13:20.650Z,101740.19
2022-10-19T02:15:52.062Z,101732.19
2022-10-19T02:18:28.628Z,101732.94
2022-10-19T02:20:56.115Z,101736.59
2022-10-19T02:23:27.739Z,101728.50
2022-10-19T02:25:56.669Z,101723.09
2022-10-19T02:28:28.339Z,101725.81
2022-10-19T02:30:56.287Z,101728.66
2022-10-19T02:33:23.853Z,101727.78
2022-10-19T02:35:51.154Z,101726.81
2022-10-19T02:38:22.257Z,101721.41
2022-10-19T02:41:18.885Z,101721.41
2022-10-19T02:43:51.501Z,101722.25
2022-10-19T02:46:25.644Z,101727.66
2022-10-19T02:48:54.571Z,101715.16
2022-10-19T02:51:39.391Z,101719.69
2022-10-19T02:54:08.511Z,101714.44
2022-10-19T02:56:35.918Z,101712.59
2022-10-19T02:59:03.854Z,101712.59
2022-10-19T03:01:31.116Z,101710.75
2022-10-19T03:03:58.382Z,101714.31
2022-10-19T03:06:25.604Z,101712.59
2022-10-19T03:08:53.011Z,101718.09
2022-10-19T03:11:20.300Z,101713.44
2022-10-19T03:16:19.738Z,101716.25
2022-10-19T03:18:48.868Z,101718.97
2022-10-19T03:21:16.602Z,101732.44
2022-10-19T03:23:43.921Z,101728.91
2022-10-19T03:26:14.985Z,101734.28
2022-10-19T03:28:42.543Z,101724.50
2022-10-19T03:31:09.974Z,101719.09
2022-10-19T03:33:37.471Z,101726.19
2022-10-19T03:36:23.184Z,101722.78
2022-10-19T03:38:55.125Z,101727.19
2022-10-19T03:41:24.347Z,101722.66
2022-10-19T03:43:52.124Z,101713.84
2022-10-19T03:46:20.089Z,101716.53
2022-10-19T03:48:47.734Z,101720.94
2022-10-19T03:51:20.698Z,101718.25
2022-10-19T03:53:47.966Z,101722.78
2022-10-19T03:56:17.704Z,101720.94
2022-10-19T03:58:46.928Z,101714.81
2022-10-19T04:01:23.117Z,101714.81
2022-10-19T04:03:57.572Z,101724.75
2022-10-19T04:06:28.451Z,101714.81
2022-10-19T04:08:56.448Z,101726.34
2022-10-19T04:11:29.972Z,101727.34
2022-10-19T04:13:58.770Z,101720.19
2022-10-19T04:16:28.126Z,101719.25
2022-10-19T04:18:55.728Z,101723.91
2022-10-19T04:21:31.976Z,101724.75
2022-10-19T04:24:02.595Z,101713.09
2022-10-19T04:26:30.596Z,101722.91
2022-10-19T04:28:59.199Z,101724.88
2022-10-19T04:31:27.953Z,101721.19
2022-10-19T04:33:55.967Z,101727.44
2022-10-19T04:36:24.331Z,101719.50
2022-10-19T04:38:52.338Z,101712.41
2022-10-19T04:41:38.855Z,101715.94
2022-10-19T04:44:09.183Z,101710.66
2022-10-19T04:46:37.427Z,101713.09
2022-10-19T04:49:07.762Z,101708.81
2022-10-19T04:51:35.360Z,101715.94
2022-10-19T04:54:04.481Z,101713.34
2022-10-19T04:56:34.978Z,101706.13
2022-10-19T04:59:02.256Z,101713.25
2022-10-19T05:01:30.889Z,101715.94
2022-10-19T05:04:00.764Z,101710.81
2022-10-19T05:06:29.395Z,101714.34
2022-10-19T05:08:56.667Z,101709.81
2022-10-19T05:11:24.186Z,101706.13
2022-10-19T05:13:54.271Z,101708.81
2022-10-19T05:16:23.368Z,101712.50
2022-10-19T05:18:52.408Z,101714.34
2022-10-19T05:21:21.789Z,101708.09
2022-10-19T05:23:52.430Z,101705.41
2022-10-19T05:26:22.246Z,101703.56
2022-10-19T05:28:59.478Z,101709.09
2022-10-19T05:31:28.846Z,101704.56
2022-10-19T05:33:57.207Z,101701.84
2022-10-19T05:36:34.376Z,101709.94
2022-10-19T05:39:05.878Z,101710.94
2022-10-19T05:41:33.906Z,101713.63
2022-10-19T05:44:02.128Z,101718.03
2022-10-19T05:46:30.528Z,101711.78
2022-10-19T05:49:01.558Z,101712.66
2022-10-19T05:51:29.205Z,101714.59
2022-10-19T05:53:57.078Z,101716.34
2022-10-19T05:56:26.755Z,101715.44
2022-10-19T05:58:56.409Z,101706.66
2022-10-19T06:01:24.568Z,101712.75
2022-10-19T06:03:54.034Z,101712.66
2022-10-19T06:06:22.210Z,101713.63
2022-10-19T06:08:50.285Z,101706.50
2022-10-19T06:11:23.486Z,101719.88
2022-10-19T06:13:53.701Z,101714.59
2022-10-19T06:16:21.750Z,101717.28
2022-10-19T06:18:48.948Z,101719.03
2022-10-19T06:21:18.759Z,101714.59
2022-10-19T06:23:53.184Z,101715.44
2022-10-19T06:26:21.339Z,101717.28
2022-10-19T06:28:49.630Z,101721.84
2022-10-19T06:31:17.708Z,101724.03
2022-10-19T06:33:48.525Z,101733.50
2022-10-19T06:36:20.149Z,101741.25
2022-10-19T06:38:47.931Z,101747.03
2022-10-19T06:41:15.399Z,101750.09
2022-10-19T06:43:43.538Z,101750.22
2022-10-19T06:46:17.508Z,101752.44
2022-10-19T06:48:44.783Z,101749.97
2022-10-19T06:51:13.638Z,101750.97
2022-10-19T06:53:40.900Z,101748.50
2022-10-19T06:56:08.407Z,101753.19
2022-10-19T06:58:39.579Z,101755.13
2022-10-19T07:01:08.187Z,101766.78
2022-10-19T07:03:36.562Z,101760.53
2022-10-19T07:06:06.838Z,101765.81
2022-10-19T07:08:35.879Z,101764.06
2022-10-19T07:11:06.242Z,101771.06
2022-10-19T07:13:33.771Z,101765.91
2022-10-19T07:16:06.810Z,101763.38
2022-10-19T07:18:34.822Z,101765.91
2022-10-19T07:21:05.228Z,101765.91
2022-10-19T07:23:34.600Z,101766.66
2022-10-19T07:26:13.898Z,101764.06
2022-10-19T07:28:43.321Z,101773.75
2022-10-19T07:31:13.234Z,101766.44
2022-10-19T07:33:41.010Z,101766.28
2022-10-19T07:36:10.723Z,101775.00
2022-10-19T07:38:37.951Z,101770.31
2022-10-19T07:41:12.849Z,101772.75
2022-10-19T07:43:41.489Z,101771.78
2022-10-19T07:46:13.229Z,101771.78
2022-10-19T07:48:40.756Z,101773.38
2022-10-19T07:51:09.541Z,101779.47
2022-10-19T07:53:38.338Z,101767.00
2022-10-19T07:56:12.223Z,101774.09
2022-10-19T07:58:40.841Z,101782.06
2022-10-19T08:01:25.559Z,101780.09
2022-10-19T08:06:42.918Z,101772.75
2022-10-19T08:09:15.678Z,101770.03
2022-10-19T08:11:50.150Z,101777.75
2022-10-19T08:14:17.370Z,101772.38
2022-10-19T08:16:44.616Z,101774.81
2022-10-19T08:19:14.355Z,101772.97
2022-10-19T08:21:45.454Z,101766.59
2022-10-19T08:24:14.819Z,101770.03
2022-10-19T08:26:42.772Z,101769.03
2022-10-19T08:29:19.007Z,101776.97
2022-10-19T08:31:48.964Z,101762.66
2022-10-19T08:34:16.723Z,101767.06
2022-10-19T08:36:44.227Z,101767.91
2022-10-19T08:39:12.897Z,101765.00
2022-10-19T08:41:40.202Z,101762.28
2022-10-19T08:44:30.724Z,101753.22
2022-10-19T08:47:35.605Z,101758.50
2022-10-19T08:50:14.477Z,101752.25
2022-10-19T08:52:43.371Z,101754.66
2022-10-19T08:55:18.199Z,101757.50
2022-10-19T08:58:00.270Z,101752.84
2022-10-19T09:00:42.789Z,101751.97
2022-10-19T09:03:15.635Z,101749.16
2022-10-19T09:06:13.450Z,101754.56
2022-10-19T09:08:40.913Z,101756.25
2022-10-19T09:11:10.873Z,101757.97
2022-10-19T09:14:04.325Z,101758.84
2022-10-19T09:16:35.089Z,101760.56
2022-10-19T09:19:03.912Z,101764.81
2022-10-19T09:21:51.122Z,101755.03
2022-10-19T09:24:29.770Z,101761.16
2022-10-19T09:27:00.434Z,101755.75
2022-10-19T09:29:51.195Z,101750.38
2022-10-19T09:32:40.760Z,101751.09
2022-10-19T09:35:35.521Z,101741.28
2022-10-19T09:38:05.907Z,101742.00
2022-10-19T09:40:35.056Z,101741.88
2022-10-19T09:43:19.306Z,101740.19
2022-10-19T09:45:59.167Z,101739.19
2022-10-19T09:48:27.226Z,101732.78
2022-10-19T09:50:58.959Z,101745.28
2022-10-19T09:53:26.848Z,101740.75
2022-10-19T09:56:06.774Z,101735.34
2022-10-19T09:58:34.952Z,101733.53
2022-10-19T10:01:03.303Z,101735.34
2022-10-19T10:03:39.306Z,101736.94
2022-10-19T10:06:08.968Z,101735.25
2022-10-19T10:08:59.551Z,101729.84
2022-10-19T10:11:38.082Z,101735.09
2022-10-19T10:14:23.345Z,101729.72
2022-10-19T10:16:56.232Z,101718.91
2022-10-19T10:19:28.402Z,101727.75
2022-10-19T10:21:57.990Z,101733.16
2022-10-19T10:24:27.912Z,101719.66
2022-10-19T10:27:01.350Z,101718.66
2022-10-19T10:29:36.624Z,101715.97
2022-10-19T10:32:09.217Z,101710.56
2022-10-19T10:34:45.982Z,101718.66
2022-10-19T10:37:23.959Z,101711.41
2022-10-19T10:39:53.729Z,101708.72
2022-10-19T10:42:29.452Z,101714.84
2022-10-19T10:44:59.478Z,101709.56
2022-10-19T10:47:28.525Z,101704.06
2022-10-19T10:50:05.907Z,101696.06
2022-10-19T10:52:33.737Z,101687.00
2022-10-19T10:55:17.945Z,101682.47
2022-10-19T10:57:50.555Z,101678.78
2022-10-19T11:00:20.858Z,101679.63
2022-10-19T11:03:09.580Z,101684.03
2022-10-19T11:05:42.882Z,101677.78
2022-10-19T11:08:27.681Z,101672.41
2022-10-19T11:11:10.114Z,101666.16
2022-10-19T11:14:46.857Z,101667.00
2022-10-19T11:17:47.154Z,101665.88
2022-10-19T11:20:16.861Z,101660.59
2022-10-19T11:22:57.236Z,101660.50
2022-10-19T11:25:35.883Z,101653.34
2022-10-19T11:28:54.445Z,101648.84
2022-10-19T11:31:50.457Z,101645.25
2022-10-19T11:34:37.055Z,101647.13
2022-10-19T11:37:10.594Z,101638.06
2022-10-19T11:40:05.923Z,101638.16
2022-10-19T11:43:07.075Z,101634.63
2022-10-19T11:45:45.452Z,101636.31
2022-10-19T11:48:22.146Z,101630.06
2022-10-19T11:50:54.073Z,101622.81
2022-10-19T11:53:53.704Z,101609.34
2022-10-19T11:57:01.739Z,101608.38
2022-10-19T12:00:37.628Z,101605.53
2022-10-19T12:03:06.979Z,101605.53
2022-10-19T12:05:58.803Z,101602.81
2022-10-19T12:09:01.614Z,101599.03
2022-10-19T12:11:50.024Z,101591.88
2022-10-19T12:14:25.817Z,101583.78
2022-10-19T12:17:00.584Z,101595.44
2022-10-19T12:19:32.770Z,101590.03
2022-10-19T12:22:04.022Z,101590.94
2022-10-19T12:24:34.284Z,101583.69
2022-10-19T12:27:02.185Z,101572.03
2022-10-19T12:29:43.631Z,101570.19
2022-10-19T12:32:15.099Z,101572.75
2022-10-19T12:35:07.458Z,101568.44
2022-10-19T12:37:55.335Z,101562.78
2022-10-19T12:40:40.437Z,101561.94
2022-10-19T12:43:17.697Z,101555.69
2022-10-19T12:46:08.061Z,101559.09
2022-10-19T12:48:37.175Z,101559.25
2022-10-19T12:51:07.687Z,101545.75
2022-10-19T12:53:36.345Z,101546.59
2022-10-19T12:56:08.111Z,101544.75
2022-10-19T12:58:38.228Z,101542.91
2022-10-19T13:01:07.487Z,101533.97
2022-10-19T13:03:42.723Z,101541.09
2022-10-19T13:06:24.942Z,101526.72
2022-10-19T13:08:58.778Z,101523.06
2022-10-19T13:11:26.245Z,101518.50
2022-10-19T13:14:27.607Z,101519.50
2022-10-19T13:16:58.846Z,101514.97
2022-10-19T13:19:27.201Z,101514.97
2022-10-19T13:22:22.754Z,101512.09
2022-10-19T13:25:16.260Z,101507.72
2022-10-19T13:27:47.537Z,101505.84
2022-10-19T13:30:37.164Z,101503.16
2022-10-19T13:33:24.593Z,101506.72
2022-10-19T13:36:02.309Z,101501.31
2022-10-19T13:38:32.615Z,101504.00
2022-10-19T13:41:35.116Z,101504.00
2022-10-19T13:44:20.390Z,101496.75
2022-10-19T13:47:06.644Z,101500.31
2022-10-19T13:49:50.026Z,101495.78
2022-10-19T13:52:42.437Z,101487.66
2022-10-19T13:55:24.891Z,101475.19
2022-10-19T13:58:14.043Z,101478.72
2022-10-19T14:00:56.423Z,101474.19
2022-10-19T14:03:54.699Z,101469.66
2022-10-19T14:06:31.843Z,101469.66
2022-10-19T14:09:25.663Z,101476.88
2022-10-19T14:11:54.436Z,101475.06
2022-10-19T14:14:24.543Z,101470.50
2022-10-19T14:17:04.007Z,101464.25
2022-10-19T14:19:43.983Z,101471.38
2022-10-19T14:23:36.290Z,101457.03
2022-10-19T14:26:18.819Z,101459.72
2022-10-19T14:28:52.579Z,101460.56
2022-10-19T14:31:26.322Z,101457.03
2022-10-19T14:33:58.198Z,101450.63
2022-10-19T14:36:33.339Z,101454.16
2022-10-19T14:39:00.670Z,101444.38
2022-10-19T14:41:28.081Z,101447.91
2022-10-19T14:44:00.542Z,101446.22
2022-10-19T14:46:33.247Z,101445.22
2022-10-19T14:49:02.727Z,101451.47
2022-10-19T14:51:45.073Z,101445.22
2022-10-19T14:54:29.110Z,101447.78
2022-10-19T14:57:05.319Z,101448.63
2022-10-19T14:59:44.714Z,101437.97
2022-10-19T15:02:25.579Z,101445.06
2022-10-19T15:04:56.001Z,101444.09
2022-10-19T15:07:38.378Z,101434.00
2022-10-19T15:10:16.009Z,101435.84
2022-10-19T15:12:44.266Z,101429.59
2022-10-19T15:15:29.217Z,101430.47
2022-10-19T15:18:04.471Z,101437.56
2022-10-19T15:20:44.078Z,101434.00
2022-10-19T15:23:29.179Z,101436.72
2022-10-19T15:26:17.253Z,101442.09
2022-10-19T15:28:45.503Z,101439.41
2022-10-19T15:31:17.774Z,101434.00
2022-10-19T15:33:51.770Z,101437.56
2022-10-19T15:36:21.738Z,101436.72
2022-10-19T15:39:32.690Z,101441.25
2022-10-19T15:42:36.784Z,101434.00
2022-10-19T15:45:27.943Z,101443.94
2022-10-19T15:48:15.190Z,101442.09
2022-10-19T15:50:48.528Z,101433.16
2022-10-19T15:53:16.741Z,101436.84
2022-10-19T15:55:44.313Z,101437.56
2022-10-19T15:58:13.513Z,101434.16
2022-10-19T16:00:42.235Z,101442.94
2022-10-19T16:03:09.803Z,101430.47
2022-10-19T16:05:37.820Z,101436.72
2022-10-19T16:08:07.879Z,101443.94
2022-10-19T16:10:37.647Z,101439.25
2022-10-19T16:13:05.077Z,101433.84
2022-10-19T16:15:32.326Z,101437.72
2022-10-19T16:18:00.495Z,101432.16
2022-10-19T16:20:29.547Z,101435.84
2022-10-19T16:22:57.515Z,101435.84
2022-10-19T16:25:24.878Z,101440.53
2022-10-19T16:27:52.178Z,101435.13
2022-10-19T16:30:19.522Z,101436.97
2022-10-19T16:32:49.831Z,101439.81
2022-10-19T16:35:17.104Z,101443.53
2022-10-19T16:37:44.355Z,101436.41
2022-10-19T16:40:11.734Z,101441.94
2022-10-19T16:42:39.041Z,101432.16
2022-10-19T16:45:06.946Z,101441.09
2022-10-19T16:47:34.239Z,101437.53
2022-10-19T16:50:04.215Z,101438.41
2022-10-19T16:52:33.214Z,101437.53
2022-10-19T16:55:01.348Z,101441.25
2022-10-19T16:57:28.571Z,101446.66
2022-10-19T16:59:55.854Z,101444.78
2022-10-19T17:02:23.610Z,101448.34
2022-10-19T17:04:50.861Z,101457.44
2022-10-19T17:07:19.625Z,101456.56
2022-10-19T17:09:54.482Z,101459.13
2022-10-19T17:12:24.393Z,101457.44
2022-10-19T17:14:51.671Z,101453.75
2022-10-19T17:17:19.235Z,101461.84
2022-10-19T17:19:46.785Z,101459.13
2022-10-19T17:22:14.124Z,101461.69
2022-10-19T17:24:41.527Z,101462.69
2022-10-19T17:27:08.910Z,101460.84
2022-10-19T17:29:36.213Z,101471.63
2022-10-19T17:32:03.602Z,101456.44
2022-10-19T17:34:30.834Z,101459.97
2022-10-19T17:36:58.399Z,101460.97
2022-10-19T17:39:29.196Z,101468.94
2022-10-19T17:42:01.855Z,101472.75
2022-10-19T17:44:31.356Z,101471.78
2022-10-19T17:47:01.162Z,101472.63
2022-10-19T17:49:30.340Z,101475.44
2022-10-19T17:51:58.093Z,101480.00
2022-10-19T17:54:25.552Z,101474.75
2022-10-19T17:56:53.058Z,101474.75
2022-10-19T17:59:30.225Z,101479.16
2022-10-19T18:02:04.012Z,101481.00
2022-10-19T18:04:31.329Z,101486.53
2022-10-19T18:06:58.702Z,101488.25
2022-10-19T18:09:26.012Z,101497.34
2022-10-19T18:11:53.310Z,101492.78
2022-10-19T18:14:20.586Z,101496.34
2022-10-19T18:16:48.023Z,101498.19
2022-10-19T18:19:16.993Z,101500.03
2022-10-19T18:21:46.430Z,101497.44
2022-10-19T18:24:20.241Z,101510.81
2022-10-19T18:26:49.533Z,101504.56
2022-10-19T18:29:22.198Z,101509.09
2022-10-19T18:31:53.422Z,101504.69
2022-10-19T18:34:23.671Z,101502.84
2022-10-19T18:36:52.008Z,101496.59
2022-10-19T18:39:19.395Z,101498.44
2022-10-19T18:41:51.737Z,101500.28
2022-10-19T18:44:23.640Z,101493.19
2022-10-19T18:46:55.442Z,101493.91
2022-10-19T18:49:23.979Z,101487.81
2022-10-19T18:51:55.085Z,101493.19
2022-10-19T18:54:26.354Z,101493.19
2022-10-19T18:56:55.001Z,101489.66
2022-10-19T18:59:23.144Z,101495.03
2022-10-19T19:01:50.781Z,101494.16
2022-10-19T19:04:18.348Z,101495.16
2022-10-19T19:06:45.624Z,101496.00
2022-10-19T19:09:13.215Z,101501.41
2022-10-19T19:11:41.285Z,101499.56
2022-10-19T19:14:12.356Z,101504.25
2022-10-19T19:16:41.139Z,101500.56
2022-10-19T19:19:08.693Z,101505.25
2022-10-19T19:21:36.635Z,101499.84
2022-10-19T19:24:06.038Z,101511.34
2022-10-19T19:26:41.252Z,101499.13
2022-10-19T19:29:08.732Z,101508.91
2022-10-19T19:31:36.564Z,101508.81
2022-10-19T19:34:06.294Z,101507.94
2022-10-19T19:36:33.640Z,101510.66
2022-10-19T19:39:01.414Z,101509.91
2022-10-19T19:41:30.789Z,101513.47
2022-10-19T19:43:59.095Z,101516.16
2022-10-19T19:46:26.555Z,101526.09
2022-10-19T19:49:01.052Z,101519.84
2022-10-19T19:51:30.006Z,101521.69
2022-10-19T19:53:57.634Z,101527.81
2022-10-19T19:56:25.642Z,101530.66
2022-10-19T19:58:58.058Z,101531.50
2022-10-19T20:04:18.785Z,101530.66
2022-10-19T20:06:46.190Z,101529.81
2022-10-19T20:09:13.618Z,101525.41
2022-10-19T20:11:42.775Z,101522.69
2022-10-19T20:14:12.484Z,101535.19
2022-10-19T20:19:21.331Z,101534.34
2022-10-19T20:21:48.752Z,101544.28
2022-10-19T20:24:16.217Z,101537.16
2022-10-19T20:26:43.544Z,101538.03
2022-10-19T20:29:10.834Z,101532.66
2022-10-19T20:31:40.343Z,101540.75
2022-10-19T20:34:11.020Z,101544.41
2022-10-19T20:36:38.633Z,101542.56
2022-10-19T20:43:44.662Z,101547.09
2022-10-19T20:46:15.191Z,101540.75
2022-10-19T20:48:42.516Z,101537.31
2022-10-19T20:51:39.261Z,101543.44
2022-10-19T20:54:10.113Z,101541.69
2022-10-19T20:56:39.122Z,101544.41
2022-10-19T20:59:09.015Z,101547.09
2022-10-19T21:01:41.036Z,101541.84
2022-10-19T21:04:10.755Z,101545.25
2022-10-19T21:06:41.109Z,101537.16
2022-10-19T21:09:09.651Z,101547.94
2022-10-19T21:11:39.311Z,101547.09
2022-10-19T21:14:13.165Z,101542.56
2022-10-19T21:16:40.998Z,101550.53
2022-10-19T21:19:19.162Z,101545.13
2022-10-19T21:21:55.475Z,101537.03
2022-10-19T21:24:26.093Z,101539.75
2022-10-19T21:26:53.777Z,101540.59
2022-10-19T21:29:21.305Z,101549.69
2022-10-19T21:31:54.803Z,101554.94
2022-10-19T21:34:32.096Z,101554.09
2022-10-19T21:36:59.615Z,101553.22
2022-10-19T21:39:26.857Z,101562.31
2022-10-19T21:41:54.168Z,101568.56
2022-10-19T21:44:23.154Z,101565.88
2022-10-19T21:46:50.855Z,101567.56
2022-10-19T21:49:18.663Z,101568.41
2022-10-19T21:51:52.010Z,101570.28
2022-10-19T21:54:21.959Z,101567.44
2022-10-19T21:56:49.243Z,101566.47
2022-10-19T21:59:17.133Z,101562.03
2022-10-19T22:01:44.477Z,101560.19
2022-10-19T22:04:17.272Z,101551.22
2022-10-19T22:06:44.732Z,101555.78
2022-10-19T22:09:14.847Z,101554.78
2022-10-19T22:11:43.029Z,101553.09
2022-10-19T22:14:12.918Z,101553.94
2022-10-19T22:16:40.864Z,101553.09
2022-10-19T22:19:08.229Z,101553.09
2022-10-19T22:21:35.740Z,101561.91
2022-10-19T22:24:14.929Z,101557.47
2022-10-19T22:26:44.911Z,101563.88
2022-10-19T22:29:12.359Z,101559.31
2022-10-19T22:31:39.931Z,101555.66
2022-10-19T22:34:10.733Z,101573.56
2022-10-19T22:36:38.473Z,101563.88
2022-10-19T22:39:06.766Z,101569.16
2022-10-19T22:42:29.931Z,101574.56
2022-10-19T22:46:11.997Z,101566.47
2022-10-19T22:49:54.374Z,101574.56
2022-10-19T22:52:58.559Z,101566.47
2022-10-19T22:55:25.801Z,101578.09
2022-10-19T22:57:53.027Z,101578.22
2022-10-19T23:00:20.296Z,101575.41
2022-10-19T23:02:47.525Z,101570.84
2022-10-19T23:05:14.919Z,101571.84
2022-10-19T23:07:42.156Z,101568.28
2022-10-19T23:10:09.591Z,101567.44
2022-10-19T23:12:36.841Z,101572.81
2022-10-19T23:15:04.589Z,101563.88
2022-10-19T23:17:31.791Z,101570.13
2022-10-19T23:19:59.016Z,101575.50
2022-10-19T23:22:26.343Z,101577.38
2022-10-19T23:24:53.612Z,101577.50
2022-10-19T23:27:21.169Z,101586.47
2022-10-19T23:29:48.449Z,101589.16
2022-10-19T23:32:15.715Z,101586.47
2022-10-19T23:34:44.609Z,101589.31
2022-10-19T23:37:14.838Z,101579.34
2022-10-19T23:39:42.067Z,101580.31
2022-10-19T23:42:09.317Z,101577.50
2022-10-19T23:44:36.558Z,101575.81
2022-10-19T23:47:03.852Z,101581.22
2022-10-19T23:49:31.086Z,101580.22
2022-10-19T23:51:58.384Z,101568.69
2022-10-19T23:54:25.726Z,101585.72
2022-10-19T23:56:52.950Z,101574.94
2022-10-19T23:59:20.348Z,101577.63
